createdAt,value
2023-09-22T00:02:05.088Z,5.80
2023-09-22T00:04:50.616Z,5.68
2023-09-22T00:07:36.352Z,4.78
2023-09-22T00:10:21.891Z,7.05
2023-09-22T00:13:07.890Z,7.60
2023-09-22T00:15:53.364Z,7.57
2023-09-22T00:18:39.067Z,9.88
2023-09-22T00:21:24.665Z,5.20
2023-09-22T00:24:10.423Z,13.13
2023-09-22T00:26:56.034Z,8.40
2023-09-22T00:29:41.929Z,3.88
2023-09-22T00:32:27.879Z,8.13
2023-09-22T00:35:15.334Z,5.47
2023-09-22T00:38:01.299Z,11.40
2023-09-22T00:40:46.885Z,7.85
2023-09-22T00:43:32.521Z,7.60
2023-09-22T00:46:24.948Z,13.68
2023-09-22T00:49:11.565Z,6.60
2023-09-22T00:51:59.787Z,8.02
2023-09-22T00:54:46.622Z,7.18
2023-09-22T00:57:32.409Z,4.07
2023-09-22T01:00:19.306Z,5.32
2023-09-22T01:03:05.372Z,9.45
2023-09-22T01:05:51.452Z,6.03
2023-09-22T01:08:37.659Z,8.38
2023-09-22T01:11:23.154Z,11.38
2023-09-22T01:14:09.106Z,5.28
2023-09-22T01:16:56.776Z,8.00
2023-09-22T01:19:44.262Z,5.82
2023-09-22T01:22:30.028Z,10.63
2023-09-22T01:25:15.927Z,9.48
2023-09-22T01:28:01.651Z,7.40
2023-09-22T01:30:47.307Z,5.18
2023-09-22T01:33:33.529Z,9.73
2023-09-22T01:36:19.065Z,5.57
2023-09-22T01:39:06.528Z,7.15
2023-09-22T01:41:52.195Z,7.97
2023-09-22T01:44:37.751Z,6.00
2023-09-22T01:47:23.826Z,9.18
2023-09-22T01:50:10.312Z,11.73
2023-09-22T01:52:55.726Z,5.10
2023-09-22T01:55:42.630Z,7.82
2023-09-22T01:58:28.435Z,5.18
2023-09-22T02:01:14.361Z,7.90
2023-09-22T02:04:00.299Z,8.93
2023-09-22T02:06:45.852Z,7.65
2023-09-22T02:09:31.678Z,11.95
2023-09-22T02:12:17.214Z,8.85
2023-09-22T02:15:03.131Z,5.68
2023-09-22T02:17:48.880Z,9.57
2023-09-22T02:20:34.382Z,6.25
2023-09-22T02:23:20.141Z,9.27
2023-09-22T02:26:09.741Z,10.82
2023-09-22T02:28:55.459Z,12.10
2023-09-22T02:31:41.344Z,7.97
2023-09-22T02:34:27.301Z,9.73
2023-09-22T02:37:13.035Z,10.75
2023-09-22T02:39:59.515Z,13.27
2023-09-22T02:42:45.508Z,8.65
2023-09-22T02:45:31.406Z,12.70
2023-09-22T02:48:17.173Z,9.75
2023-09-22T02:51:07.779Z,6.57
2023-09-22T02:53:55.704Z,10.00
2023-09-22T02:56:41.063Z,9.45
2023-09-22T02:59:26.798Z,8.95
2023-09-22T03:02:12.335Z,6.22
2023-09-22T03:05:02.465Z,10.98
2023-09-22T03:07:49.588Z,14.30
2023-09-22T03:10:35.421Z,9.18
2023-09-22T03:13:22.005Z,9.68
2023-09-22T03:16:07.974Z,8.90
2023-09-22T03:18:54.002Z,12.52
2023-09-22T03:21:39.788Z,8.77
2023-09-22T03:24:25.440Z,12.13
2023-09-22T03:27:11.120Z,10.13
2023-09-22T03:29:56.562Z,7.65
2023-09-22T03:32:42.420Z,16.15
2023-09-22T03:35:27.855Z,7.68
2023-09-22T03:38:16.637Z,9.18
2023-09-22T03:41:06.933Z,13.27
2023-09-22T03:43:52.446Z,9.55
2023-09-22T03:46:40.541Z,10.73
2023-09-22T03:49:26.601Z,8.82
2023-09-22T03:52:12.173Z,15.48
2023-09-22T03:54:57.869Z,10.32
2023-09-22T03:57:44.333Z,10.48
2023-09-22T04:00:30.382Z,8.63
2023-09-22T04:03:20.227Z,13.43
2023-09-22T04:06:06.560Z,8.40
2023-09-22T04:08:53.058Z,10.45
2023-09-22T04:11:38.727Z,11.00
2023-09-22T04:14:24.542Z,8.45
2023-09-22T04:17:10.223Z,8.45
2023-09-22T04:19:56.159Z,9.55
2023-09-22T04:22:45.168Z,15.38
2023-09-22T04:25:35.498Z,16.51
2023-09-22T04:28:24.760Z,10.27
2023-09-22T04:31:14.072Z,8.80
2023-09-22T04:34:00.126Z,13.90
2023-09-22T04:36:46.062Z,12.60
2023-09-22T04:39:33.344Z,8.20
2023-09-22T04:42:19.155Z,14.77
2023-09-22T04:45:05.674Z,14.48
2023-09-22T04:47:53.628Z,11.20
2023-09-22T04:50:39.756Z,13.15
2023-09-22T04:53:25.992Z,14.73
2023-09-22T04:56:11.838Z,16.52
2023-09-22T04:58:57.729Z,13.57
2023-09-22T05:01:43.441Z,14.32
2023-09-22T05:04:30.480Z,16.70
2023-09-22T05:07:17.335Z,13.93
2023-09-22T05:10:04.057Z,20.30
2023-09-22T05:12:53.129Z,10.30
2023-09-22T05:15:43.011Z,12.25
2023-09-22T05:18:28.827Z,17.48
2023-09-22T05:21:14.649Z,11.68
2023-09-22T05:24:00.103Z,13.63
2023-09-22T05:26:45.539Z,14.65
2023-09-22T05:29:31.446Z,8.43
2023-09-22T05:32:16.836Z,15.02
2023-09-22T05:35:05.833Z,14.18
2023-09-22T05:37:53.698Z,9.23
2023-09-22T05:40:39.665Z,10.18
2023-09-22T05:43:25.206Z,14.05
2023-09-22T05:46:11.200Z,14.20
2023-09-22T05:48:59.067Z,19.73
2023-09-22T05:51:45.275Z,13.95
2023-09-22T05:54:30.931Z,11.75
2023-09-22T05:57:16.869Z,17.77
2023-09-22T06:00:02.419Z,19.25
2023-09-22T06:02:52.025Z,21.13
2023-09-22T06:05:38.263Z,11.32
2023-09-22T06:08:24.022Z,17.73
2023-09-22T06:11:09.930Z,11.50
2023-09-22T06:13:55.789Z,22.55
2023-09-22T06:16:41.286Z,12.88
2023-09-22T06:19:26.785Z,11.40
2023-09-22T06:22:12.513Z,18.58
2023-09-22T06:25:00.299Z,16.27
2023-09-22T06:27:47.228Z,15.82
2023-09-22T06:30:36.534Z,22.52
2023-09-22T06:33:22.480Z,25.75
2023-09-22T06:36:07.951Z,11.75
2023-09-22T06:38:53.695Z,22.98
2023-09-22T06:41:39.687Z,15.57
2023-09-22T06:44:28.970Z,14.07
2023-09-22T06:47:14.777Z,14.80
2023-09-22T06:50:00.755Z,14.10
2023-09-22T06:52:46.820Z,14.40
2023-09-22T06:55:32.324Z,18.42
2023-09-22T06:58:17.786Z,19.80
2023-09-22T07:01:11.972Z,12.75
2023-09-22T07:03:58.382Z,16.08
2023-09-22T07:06:44.238Z,19.92
2023-09-22T07:09:29.883Z,20.10
2023-09-22T07:12:18.042Z,16.40
2023-09-22T07:15:04.455Z,14.25
2023-09-22T07:17:50.248Z,15.57
2023-09-22T07:20:36.255Z,20.75
2023-09-22T07:23:23.296Z,21.45
2023-09-22T07:26:14.404Z,15.25
2023-09-22T07:29:02.895Z,19.17
2023-09-22T07:31:48.409Z,11.77
2023-09-22T07:34:34.540Z,9.30
2023-09-22T07:37:21.639Z,14.60
2023-09-22T07:40:11.404Z,10.65
2023-09-22T07:42:57.285Z,14.20
2023-09-22T07:45:46.361Z,10.60
2023-09-22T07:48:32.423Z,31.27
2023-09-22T07:51:18.547Z,20.52
2023-09-22T07:54:04.680Z,16.13
2023-09-22T07:56:50.595Z,13.75
2023-09-22T07:59:36.673Z,12.65
2023-09-22T08:02:22.650Z,11.10
2023-09-22T08:05:11.119Z,10.48
2023-09-22T08:07:59.910Z,19.20
2023-09-22T08:10:45.986Z,17.73
2023-09-22T08:13:34.897Z,15.88
2023-09-22T08:16:21.695Z,15.73
2023-09-22T08:19:11.697Z,17.08
2023-09-22T08:21:57.406Z,12.98
2023-09-22T08:24:42.988Z,17.70
2023-09-22T08:27:31.658Z,13.88
2023-09-22T08:30:17.500Z,16.27
2023-09-22T08:33:03.866Z,14.98
2023-09-22T08:36:03.364Z,15.02
2023-09-22T08:38:52.719Z,16.42
2023-09-22T08:41:39.639Z,13.45
2023-09-22T08:44:26.654Z,15.43
2023-09-22T08:47:12.109Z,14.05
2023-09-22T08:49:58.052Z,10.52
2023-09-22T08:52:46.702Z,10.20
2023-09-22T08:55:31.971Z,10.50
2023-09-22T08:58:21.974Z,13.68
2023-09-22T09:01:07.822Z,12.15
2023-09-22T09:03:54.043Z,14.88
2023-09-22T09:06:49.399Z,21.40
2023-09-22T09:09:43.937Z,9.00
2023-09-22T09:12:31.700Z,15.73
2023-09-22T09:15:19.782Z,18.33
2023-09-22T09:18:10.746Z,14.07
2023-09-22T09:24:00.538Z,16.27
2023-09-22T09:26:48.578Z,14.25
2023-09-22T09:29:37.444Z,11.52
2023-09-22T09:32:28.058Z,13.75
2023-09-22T09:35:39.713Z,16.90
2023-09-22T09:38:30.974Z,13.15
2023-09-22T09:41:16.929Z,9.68
2023-09-22T09:44:05.640Z,12.82
2023-09-22T09:46:55.934Z,11.00
2023-09-22T09:49:42.360Z,13.68
2023-09-22T09:52:38.991Z,12.27
2023-09-22T09:55:27.815Z,14.27
2023-09-22T09:58:14.395Z,14.18
2023-09-22T10:01:06.774Z,11.85
2023-09-22T10:03:54.437Z,15.05
2023-09-22T10:06:51.437Z,10.15
2023-09-22T10:09:38.064Z,10.48
2023-09-22T10:12:23.981Z,10.23
2023-09-22T10:15:10.504Z,12.65
2023-09-22T10:17:57.118Z,13.10
2023-09-22T10:20:47.107Z,16.33
2023-09-22T10:23:34.875Z,9.52
2023-09-22T10:26:21.234Z,14.85
2023-09-22T10:29:39.410Z,19.25
2023-09-22T10:32:28.300Z,13.35
2023-09-22T10:35:16.623Z,14.23
2023-09-22T10:38:04.514Z,12.15
2023-09-22T10:41:03.712Z,19.50
2023-09-22T10:44:00.621Z,17.08
2023-09-22T10:46:59.021Z,12.82
2023-09-22T10:49:44.688Z,11.00
2023-09-22T10:52:30.337Z,22.23
2023-09-22T10:55:26.010Z,12.98
2023-09-22T10:58:13.383Z,10.68
2023-09-22T11:01:02.648Z,18.58
2023-09-22T11:03:54.548Z,13.85
2023-09-22T11:06:45.195Z,13.50
2023-09-22T11:09:35.674Z,17.67
2023-09-22T11:12:22.257Z,12.75
2023-09-22T11:15:10.393Z,16.02
2023-09-22T11:17:55.917Z,17.20
2023-09-22T11:20:41.872Z,12.95
2023-09-22T11:23:28.324Z,13.80
2023-09-22T11:26:15.094Z,13.38
2023-09-22T11:29:01.378Z,9.90
2023-09-22T11:31:52.079Z,15.65
2023-09-22T11:35:11.527Z,23.50
2023-09-22T11:37:58.215Z,14.45
2023-09-22T11:40:43.923Z,17.30
2023-09-22T11:43:29.689Z,18.33
2023-09-22T11:46:28.621Z,13.32
2023-09-22T11:49:14.380Z,16.58
2023-09-22T11:52:01.230Z,16.35
2023-09-22T11:54:47.150Z,12.80
2023-09-22T11:57:32.490Z,14.35
2023-09-22T12:00:19.933Z,19.63
2023-09-22T12:03:05.900Z,12.13
2023-09-22T12:05:51.566Z,19.73
2023-09-22T12:08:37.147Z,22.05
2023-09-22T12:11:24.655Z,14.40
2023-09-22T12:14:11.731Z,17.50
2023-09-22T12:16:57.577Z,17.95
2023-09-22T12:19:45.881Z,13.95
2023-09-22T12:22:31.390Z,16.85
2023-09-22T12:25:17.140Z,23.70
2023-09-22T12:28:02.565Z,17.52
2023-09-22T12:30:48.242Z,10.38
2023-09-22T12:33:35.377Z,16.60
2023-09-22T12:36:20.919Z,14.45
2023-09-22T12:39:06.549Z,12.55
2023-09-22T12:41:52.003Z,27.95
2023-09-22T12:44:39.206Z,21.27
2023-09-22T12:47:25.099Z,24.80
2023-09-22T12:50:11.912Z,16.95
2023-09-22T12:52:57.794Z,12.30
2023-09-22T12:55:44.787Z,13.35
2023-09-22T12:58:30.719Z,20.95
2023-09-22T13:01:16.552Z,15.40
2023-09-22T13:04:04.499Z,23.15
2023-09-22T13:06:55.282Z,19.92
2023-09-22T13:09:41.227Z,17.10
2023-09-22T13:12:26.752Z,15.80
2023-09-22T13:15:12.535Z,17.58
2023-09-22T13:17:59.038Z,13.57
2023-09-22T13:20:46.147Z,14.30
2023-09-22T13:23:33.206Z,17.50
2023-09-22T13:26:20.533Z,22.85
2023-09-22T13:29:08.427Z,17.35
2023-09-22T13:31:53.829Z,16.38
2023-09-22T13:34:40.000Z,16.60
2023-09-22T13:37:25.810Z,16.85
2023-09-22T13:40:12.446Z,12.95
2023-09-22T13:42:59.707Z,10.27
2023-09-22T13:45:45.545Z,11.45
2023-09-22T13:48:31.157Z,11.02
2023-09-22T13:51:16.917Z,17.42
2023-09-22T13:54:02.278Z,16.67
2023-09-22T13:56:47.765Z,17.88
2023-09-22T13:59:33.382Z,16.73
2023-09-22T14:02:19.438Z,21.85
2023-09-22T14:05:06.934Z,11.50
2023-09-22T14:07:55.730Z,14.77
2023-09-22T14:10:44.211Z,13.60
2023-09-22T14:13:31.322Z,18.70
2023-09-22T14:16:17.581Z,14.10
2023-09-22T14:19:03.810Z,8.43
2023-09-22T14:21:49.518Z,11.95
2023-09-22T14:24:35.403Z,19.30
2023-09-22T14:27:21.598Z,12.65
2023-09-22T14:30:09.043Z,10.88
2023-09-22T14:32:55.639Z,9.73
2023-09-22T14:35:44.625Z,18.13
2023-09-22T14:38:30.094Z,13.13
2023-09-22T14:41:15.797Z,8.45
2023-09-22T14:44:01.162Z,8.00
2023-09-22T14:46:46.639Z,15.68
2023-09-22T14:49:32.864Z,17.90
2023-09-22T14:52:18.714Z,10.10
2023-09-22T14:55:04.782Z,7.07
2023-09-22T14:57:50.555Z,6.35
2023-09-22T15:00:37.374Z,7.90
2023-09-22T15:03:23.310Z,15.90
2023-09-22T15:06:09.647Z,7.13
2023-09-22T15:08:55.571Z,8.05
2023-09-22T15:11:41.278Z,9.02
2023-09-22T15:14:28.858Z,14.20
2023-09-22T15:17:14.795Z,8.93
2023-09-22T15:20:00.578Z,10.05
2023-09-22T15:22:48.859Z,7.95
2023-09-22T15:25:35.535Z,10.30
2023-09-22T15:28:21.204Z,5.05
2023-09-22T15:31:06.794Z,5.97
2023-09-22T15:33:52.746Z,4.55
2023-09-22T15:36:38.150Z,4.55
2023-09-22T15:39:25.140Z,11.40
2023-09-22T15:42:11.110Z,7.65
2023-09-22T15:44:56.415Z,7.45
2023-09-22T15:47:42.375Z,4.75
2023-09-22T15:50:33.331Z,6.55
2023-09-22T15:53:18.846Z,4.38
2023-09-22T15:56:04.920Z,12.05
2023-09-22T15:58:50.728Z,5.13
2023-09-22T16:01:37.407Z,9.68
2023-09-22T16:04:23.255Z,7.90
2023-09-22T16:07:09.281Z,6.88
2023-09-22T16:09:55.301Z,7.63
2023-09-22T16:12:41.325Z,7.63
2023-09-22T16:15:27.266Z,4.65
2023-09-22T16:18:14.531Z,3.97
2023-09-22T16:21:03.643Z,3.85
2023-09-22T16:23:50.427Z,10.32
2023-09-22T16:26:36.410Z,5.07
2023-09-22T16:29:22.150Z,7.80
2023-09-22T16:32:07.717Z,6.63
2023-09-22T16:34:53.404Z,8.18
2023-09-22T16:37:39.519Z,3.95
2023-09-22T16:40:25.358Z,6.15
2023-09-22T16:43:10.641Z,4.30
2023-09-22T16:45:58.507Z,4.60
2023-09-22T16:48:44.738Z,10.23
2023-09-22T16:51:30.733Z,5.10
2023-09-22T16:54:16.564Z,3.45
2023-09-22T16:57:03.823Z,3.53
2023-09-22T16:59:49.465Z,5.15
2023-09-22T17:02:34.988Z,10.73
2023-09-22T17:05:23.304Z,10.27
2023-09-22T17:08:09.361Z,13.45
2023-09-22T17:10:55.261Z,3.13
2023-09-22T17:13:41.075Z,7.90
2023-09-22T17:16:26.655Z,9.60
2023-09-22T17:19:12.369Z,5.78
2023-09-22T17:21:58.177Z,8.05
2023-09-22T17:24:44.010Z,5.82
2023-09-22T17:27:29.844Z,8.68
2023-09-22T17:30:18.858Z,14.57
2023-09-22T17:33:05.493Z,5.40
2023-09-22T17:35:51.587Z,5.90
2023-09-22T17:38:37.418Z,2.85
2023-09-22T17:41:26.510Z,2.28
2023-09-22T17:44:12.424Z,3.20
2023-09-22T17:46:58.476Z,3.58
2023-09-22T17:49:44.786Z,6.05
2023-09-22T17:52:30.622Z,4.55
2023-09-22T17:55:16.718Z,3.80
2023-09-22T17:58:02.871Z,2.60
2023-09-22T18:00:49.296Z,4.75
2023-09-22T18:03:35.075Z,2.42
2023-09-22T18:06:20.782Z,4.55
2023-09-22T18:09:06.801Z,3.67
2023-09-22T18:11:52.259Z,4.30
2023-09-22T18:14:38.538Z,2.58
2023-09-22T18:17:24.836Z,2.92
2023-09-22T18:20:10.855Z,5.30
2023-09-22T18:22:58.122Z,3.30
2023-09-22T18:25:43.938Z,2.88
2023-09-22T18:28:29.959Z,5.55
2023-09-22T18:31:15.478Z,5.78
2023-09-22T18:34:09.067Z,10.98
2023-09-22T18:36:54.906Z,6.45
2023-09-22T18:39:42.589Z,4.88
2023-09-22T18:42:28.916Z,3.10
2023-09-22T18:45:15.862Z,5.03
2023-09-22T18:48:01.690Z,10.30
2023-09-22T18:50:53.077Z,4.60
2023-09-22T18:53:39.916Z,4.35
2023-09-22T18:56:30.637Z,3.38
2023-09-22T18:59:18.156Z,3.33
2023-09-22T19:02:05.224Z,6.93
2023-09-22T19:04:54.093Z,5.88
2023-09-22T19:07:43.849Z,4.65
2023-09-22T19:10:29.685Z,4.05
2023-09-22T19:13:15.239Z,7.68
2023-09-22T19:16:05.442Z,3.80
2023-09-22T19:18:51.522Z,5.82
2023-09-22T19:21:36.953Z,4.55
2023-09-22T19:24:22.641Z,9.13
2023-09-22T19:27:08.289Z,8.32
2023-09-22T19:29:53.735Z,4.32
2023-09-22T19:32:39.556Z,5.47
2023-09-22T19:35:25.451Z,4.18
2023-09-22T19:38:10.888Z,4.82
2023-09-22T19:40:56.743Z,4.65
2023-09-22T19:43:42.820Z,5.57
2023-09-22T19:46:29.416Z,3.50
2023-09-22T19:49:17.494Z,6.75
2023-09-22T19:52:05.354Z,3.60
2023-09-22T19:54:51.036Z,3.80
2023-09-22T19:57:38.493Z,3.40
2023-09-22T20:00:24.216Z,3.38
2023-09-22T20:03:11.069Z,6.03
2023-09-22T20:05:59.134Z,4.63
2023-09-22T20:08:44.966Z,3.45
2023-09-22T20:11:32.898Z,5.38
2023-09-22T20:14:18.625Z,6.03
2023-09-22T20:17:04.299Z,2.53
2023-09-22T20:19:52.212Z,4.03
2023-09-22T20:22:38.319Z,3.92
2023-09-22T20:25:31.743Z,7.15
2023-09-22T20:28:17.467Z,2.63
2023-09-22T20:31:05.288Z,4.00
2023-09-22T20:33:50.905Z,7.35
2023-09-22T20:36:36.834Z,7.68
2023-09-22T20:39:25.867Z,5.45
2023-09-22T20:42:11.274Z,3.05
2023-09-22T20:44:57.386Z,3.92
2023-09-22T20:47:45.635Z,6.78
2023-09-22T20:50:34.405Z,4.72
2023-09-22T20:53:19.818Z,4.97
2023-09-22T20:56:14.950Z,4.65
2023-09-22T20:59:00.631Z,3.45
2023-09-22T21:01:49.789Z,4.30
2023-09-22T21:04:37.062Z,3.00
2023-09-22T21:07:22.592Z,9.57
2023-09-22T21:10:09.448Z,6.95
2023-09-22T21:12:55.577Z,4.45
2023-09-22T21:15:41.054Z,5.80
2023-09-22T21:18:27.408Z,4.20
2023-09-22T21:21:12.869Z,5.00
2023-09-22T21:23:58.540Z,4.13
2023-09-22T21:26:44.054Z,4.05
2023-09-22T21:29:29.673Z,4.28
2023-09-22T21:32:15.582Z,4.97
2023-09-22T21:35:01.891Z,4.85
2023-09-22T21:37:47.912Z,4.75
2023-09-22T21:40:33.978Z,6.20
2023-09-22T21:43:20.569Z,4.78
2023-09-22T21:46:10.421Z,4.65
2023-09-22T21:48:58.680Z,6.05
2023-09-22T21:51:44.302Z,6.65
2023-09-22T21:54:30.056Z,3.05
2023-09-22T21:57:18.925Z,4.03
2023-09-22T22:00:16.373Z,4.65
2023-09-22T22:03:04.153Z,3.53
2023-09-22T22:05:50.710Z,4.40
2023-09-22T22:08:41.157Z,4.78
2023-09-22T22:11:27.287Z,5.40
2023-09-22T22:14:15.116Z,3.28
2023-09-22T22:17:01.023Z,5.88
2023-09-22T22:19:48.083Z,6.43
2023-09-22T22:22:34.738Z,4.03
2023-09-22T22:25:24.598Z,4.43
2023-09-22T22:28:10.314Z,4.60
2023-09-22T22:30:57.805Z,4.75
2023-09-22T22:33:43.399Z,4.00
2023-09-22T22:36:29.881Z,4.00
2023-09-22T22:39:20.514Z,3.47
2023-09-22T22:42:10.160Z,4.18
2023-09-22T22:44:55.628Z,4.55
2023-09-22T22:47:41.833Z,3.63
2023-09-22T22:50:29.184Z,5.72
2023-09-22T22:53:17.210Z,4.43
2023-09-22T22:56:03.238Z,4.30
2023-09-22T22:58:54.640Z,4.35
2023-09-22T23:01:43.079Z,4.75
2023-09-22T23:04:29.648Z,5.05
2023-09-22T23:07:19.847Z,5.40
2023-09-22T23:10:08.719Z,4.90
2023-09-22T23:12:56.487Z,6.90
2023-09-22T23:15:44.625Z,4.47
2023-09-22T23:18:30.308Z,7.70
2023-09-22T23:21:17.334Z,4.10
2023-09-22T23:24:03.321Z,3.92
2023-09-22T23:26:49.275Z,3.53
2023-09-22T23:29:34.947Z,3.50
2023-09-22T23:32:23.017Z,3.60
2023-09-22T23:35:13.760Z,5.75
2023-09-22T23:38:00.555Z,5.10
2023-09-22T23:40:46.415Z,7.97
2023-09-22T23:43:34.403Z,4.93
2023-09-22T23:46:20.907Z,5.68
2023-09-22T23:49:25.782Z,7.28
2023-09-22T23:52:11.116Z,5.10
2023-09-22T23:54:57.367Z,15.13
2023-09-22T23:57:43.246Z,3.95
